Muir Army Air Field (Fort Indiantown Gap) Airport Fort Indiantown Gap(Annville) US
ICAO: KMUI
IATA: MUI
Category: Medium
Scheduled Services: No

Elevation: 488 ft
TransAlt. 18000 ft.

Airport Communications:
HARRISBURG APP/DEP:118.25
CTAF:126.2
GND:121.625
FLT FLW:40.9
ARNG OPS:49.95
TWR:126.2

KMUI Zoom In..

If you have problems with the map follow the link
https://www.worldairports.se/pages/airport.php?
ICAO=KMUI

Runways:

(A) RW 07 length 3978 ft width 98 ft
---- / hdg 70

(B) RW 25 length 3978 ft width 98 ft
---- / hdg 250

Location; KMUI
Day. 28 / Time. 11.56 Zulu
* Altimeter: 29.86
* Temperature: 03° c. 37.4°f.
* Wind from: 290° Speed 13 kn with Gusts up to 25 kn.
Dewpoint: -04° c.
Visibility: 10 Statute Miles.
Clouds: Overcast 3200 ft.

KMUI 281156Z AUTO 29013G25KT 10SM OVC032 03/M04 A2986 RMK AO2 RAB13E27 SLP118 P0000 60000 T00281044 10030 20025 52010


Wind From 290°
Speed 13 kn.

 
 
jpsmedia worldairports.se 2020   terms of use